sensor_id;sensor_type;location;lat;lon;timestamp;pressure;altitude;pressure_sealevel;temperature;humidity
71059;BME280;70265;47.576;19.270;2023-06-22T00:00:52;99106.56;;;20.30;100.00
71059;BME280;70265;47.576;19.270;2023-06-22T00:01:53;99093.63;;;20.21;100.00
71059;BME280;70265;47.576;19.270;2023-06-22T00:02:59;99080.97;;;20.16;100.00
71059;BME280;70265;47.576;19.270;2023-06-22T00:04:00;99068.69;;;20.09;100.00
71059;BME280;70265;47.576;19.270;2023-06-22T00:05:05;99056.38;;;20.01;100.00
71059;BME280;70265;47.576;19.270;2023-06-22T00:06:06;99041.25;;;19.95;100.00
71059;BME280;70265;47.576;19.270;2023-06-22T00:07:10;99018.72;;;19.91;100.00
71059;BME280;70265;47.576;19.270;2023-06-22T00:08:11;99026.09;;;19.96;100.00
71059;BME280;70265;47.576;19.270;2023-06-22T00:09:15;99037.13;;;20.06;100.00
71059;BME280;70265;47.576;19.270;2023-06-22T00:10:16;99061.91;;;20.13;100.00
71059;BME280;70265;47.576;19.270;2023-06-22T00:11:20;99078.50;;;20.15;100.00
71059;BME280;70265;47.576;19.270;2023-06-22T00:12:21;99098.56;;;20.17;100.00
71059;BME280;70265;47.576;19.270;2023-06-22T00:13:25;99102.66;;;20.20;100.00
71059;BME280;70265;47.576;19.270;2023-06-22T00:14:26;99108.84;;;20.14;100.00
71059;BME280;70265;47.576;19.270;2023-06-22T00:15:30;99113.53;;;20.18;100.00
71059;BME280;70265;47.576;19.270;2023-06-22T00:16:32;99110.84;;;20.31;100.00
71059;BME280;70265;47.576;19.270;2023-06-22T00:17:35;99095.66;;;20.39;100.00
71059;BME280;70265;47.576;19.270;2023-06-22T00:18:39;99089.13;;;20.35;100.00
71059;BME280;70265;47.576;19.270;2023-06-22T00:19:56;99082.56;;;20.44;100.00
71059;BME280;70265;47.576;19.270;2023-06-22T00:21:08;99085.00;;;20.45;100.00
71059;BME280;70265;47.576;19.270;2023-06-22T00:22:13;99086.63;;;20.46;100.00
71059;BME280;70265;47.576;19.270;2023-06-22T00:23:14;99091.78;;;20.41;100.00
71059;BME280;70265;47.576;19.270;2023-06-22T00:24:18;99086.25;;;20.43;100.00
71059;BME280;70265;47.576;19.270;2023-06-22T00:25:19;99088.28;;;20.47;100.00
71059;BME280;70265;47.576;19.270;2023-06-22T00:26:23;99091.13;;;20.52;100.00
71059;BME280;70265;47.576;19.270;2023-06-22T00:27:25;99088.88;;;20.49;100.00
71059;BME280;70265;47.576;19.270;2023-06-22T00:28:29;99079.47;;;20.47;100.00
71059;BME280;70265;47.576;19.270;2023-06-22T00:29:31;99086.84;;;20.45;100.00
71059;BME280;70265;47.576;19.270;2023-06-22T00:30:35;99083.59;;;20.36;100.00
71059;BME280;70265;47.576;19.270;2023-06-22T00:31:36;99087.94;;;20.30;100.00
71059;BME280;70265;47.576;19.270;2023-06-22T00:32:40;99088.69;;;20.24;100.00
71059;BME280;70265;47.576;19.270;2023-06-22T00:33:44;99091.19;;;20.26;100.00
71059;BME280;70265;47.576;19.270;2023-06-22T00:34:48;99092.41;;;20.23;100.00
71059;BME280;70265;47.576;19.270;2023-06-22T00:35:51;99084.19;;;20.25;100.00
71059;BME280;70265;47.576;19.270;2023-06-22T00:36:55;99098.19;;;20.27;100.00
71059;BME280;70265;47.576;19.270;2023-06-22T00:37:56;99086.06;;;20.31;100.00
71059;BME280;70265;47.576;19.270;2023-06-22T00:39:05;99086.25;;;20.36;100.00
71059;BME280;70265;47.576;19.270;2023-06-22T00:40:09;99087.28;;;20.35;100.00
71059;BME280;70265;47.576;19.270;2023-06-22T00:41:13;99078.47;;;20.28;100.00
71059;BME280;70265;47.576;19.270;2023-06-22T00:42:15;99075.63;;;20.29;100.00
71059;BME280;70265;47.576;19.270;2023-06-22T00:43:18;99069.69;;;20.27;100.00
71059;BME280;70265;47.576;19.270;2023-06-22T00:44:20;99071.09;;;20.23;100.00
71059;BME280;70265;47.576;19.270;2023-06-22T00:45:23;99082.78;;;20.22;100.00
71059;BME280;70265;47.576;19.270;2023-06-22T00:46:25;99085.47;;;20.16;100.00
71059;BME280;70265;47.576;19.270;2023-06-22T00:47:36;99090.97;;;20.14;100.00
71059;BME280;70265;47.576;19.270;2023-06-22T00:48:41;99082.19;;;20.14;100.00
71059;BME280;70265;47.576;19.270;2023-06-22T00:49:48;99075.59;;;20.23;100.00
71059;BME280;70265;47.576;19.270;2023-06-22T00:50:54;99094.03;;;20.24;100.00
71059;BME280;70265;47.576;19.270;2023-06-22T00:52:02;99089.75;;;20.23;100.00
71059;BME280;70265;47.576;19.270;2023-06-22T00:53:12;99094.03;;;20.24;100.00
71059;BME280;70265;47.576;19.270;2023-06-22T00:54:21;99092.44;;;20.30;100.00
71059;BME280;70265;47.576;19.270;2023-06-22T00:55:29;99081.97;;;20.22;100.00
71059;BME280;70265;47.576;19.270;2023-06-22T00:56:34;99094.69;;;20.33;100.00
71059;BME280;70265;47.576;19.270;2023-06-22T00:57:44;99105.75;;;20.23;100.00
71059;BME280;70265;47.576;19.270;2023-06-22T00:58:47;99115.34;;;20.18;100.00
71059;BME280;70265;47.576;19.270;2023-06-22T00:59:59;99118.47;;;20.02;100.00
71059;BME280;70265;47.576;19.270;2023-06-22T01:01:04;99116.63;;;19.96;100.00
71059;BME280;70265;47.576;19.270;2023-06-22T01:02:09;99099.44;;;19.92;100.00
71059;BME280;70265;47.576;19.270;2023-06-22T01:03:10;99105.56;;;19.99;100.00
71059;BME280;70265;47.576;19.270;2023-06-22T01:04:15;99101.47;;;20.03;100.00
71059;BME280;70265;47.576;19.270;2023-06-22T01:05:22;99082.22;;;19.94;100.00
71059;BME280;70265;47.576;19.270;2023-06-22T01:06:40;99102.91;;;19.99;100.00
71059;BME280;70265;47.576;19.270;2023-06-22T01:07:53;99110.91;;;19.92;100.00
71059;BME280;70265;47.576;19.270;2023-06-22T01:09:10;99099.84;;;19.75;100.00
71059;BME280;70265;47.576;19.270;2023-06-22T01:10:24;99106.19;;;19.81;100.00
71059;BME280;70265;47.576;19.270;2023-06-22T01:11:38;99087.97;;;19.65;100.00
71059;BME280;70265;47.576;19.270;2023-06-22T01:12:52;99105.59;;;19.79;100.00
71059;BME280;70265;47.576;19.270;2023-06-22T01:14:02;99102.50;;;19.82;100.00
71059;BME280;70265;47.576;19.270;2023-06-22T01:15:10;99083.66;;;19.70;100.00
71059;BME280;70265;47.576;19.270;2023-06-22T01:16:29;99096.56;;;19.73;100.00
71059;BME280;70265;47.576;19.270;2023-06-22T01:17:37;99099.44;;;19.72;100.00
71059;BME280;70265;47.576;19.270;2023-06-22T01:18:57;99087.56;;;19.74;100.00
71059;BME280;70265;47.576;19.270;2023-06-22T01:20:15;99086.72;;;19.80;100.00
71059;BME280;70265;47.576;19.270;2023-06-22T01:21:24;99091.63;;;19.83;100.00
71059;BME280;70265;47.576;19.270;2023-06-22T01:22:31;99085.91;;;19.73;100.00
71059;BME280;70265;47.576;19.270;2023-06-22T01:23:50;99099.44;;;19.72;100.00
71059;BME280;70265;47.576;19.270;2023-06-22T01:25:17;99104.16;;;19.76;100.00
71059;BME280;70265;47.576;19.270;2023-06-22T01:26:37;99101.69;;;19.75;100.00
71059;BME280;70265;47.576;19.270;2023-06-22T01:27:53;99099.84;;;19.75;100.00
71059;BME280;70265;47.576;19.270;2023-06-22T01:29:01;99108.25;;;19.79;100.00
71059;BME280;70265;47.576;19.270;2023-06-22T01:30:11;99085.72;;;19.68;100.00
71059;BME280;70265;47.576;19.270;2023-06-22T01:31:17;99095.75;;;19.73;100.00
71059;BME280;70265;47.576;19.270;2023-06-22T01:32:25;99089.63;;;19.72;100.00
71059;BME280;70265;47.576;19.270;2023-06-22T01:33:29;99103.34;;;19.69;100.00
71059;BME280;70265;47.576;19.270;2023-06-22T01:34:38;99103.13;;;19.71;100.00
71059;BME280;70265;47.576;19.270;2023-06-22T01:35:41;99098.63;;;19.65;100.00
71059;BME280;70265;47.576;19.270;2023-06-22T01:36:47;99111.94;;;19.71;100.00
71059;BME280;70265;47.576;19.270;2023-06-22T01:37:50;99109.69;;;19.75;100.00
71059;BME280;70265;47.576;19.270;2023-06-22T01:39:00;99098.00;;;19.69;100.00
71059;BME280;70265;47.576;19.270;2023-06-22T01:40:08;99109.88;;;19.73;100.00
71059;BME280;70265;47.576;19.270;2023-06-22T01:41:16;99100.69;;;19.69;100.00
71059;BME280;70265;47.576;19.270;2023-06-22T01:42:20;99103.53;;;19.74;100.00
71059;BME280;70265;47.576;19.270;2023-06-22T01:43:26;99107.84;;;19.69;100.00
71059;BME280;70265;47.576;19.270;2023-06-22T01:44:38;99099.03;;;19.55;100.00
71059;BME280;70265;47.576;19.270;2023-06-22T01:45:45;99104.75;;;19.65;100.00
71059;BME280;70265;47.576;19.270;2023-06-22T01:46:55;99114.59;;;19.58;100.00
71059;BME280;70265;47.576;19.270;2023-06-22T01:48:07;99110.28;;;19.57;100.00
71059;BME280;70265;47.576;19.270;2023-06-22T01:49:09;99110.88;;;19.53;100.00
71059;BME280;70265;47.576;19.270;2023-06-22T01:50:14;99105.97;;;19.56;100.00
71059;BME280;70265;47.576;19.270;2023-06-22T01:51:19;99099.03;;;19.62;100.00
71059;BME280;70265;47.576;19.270;2023-06-22T01:52:23;99078.16;;;19.52;100.00
71059;BME280;70265;47.576;19.270;2023-06-22T01:53:28;99096.16;;;19.50;100.00
71059;BME280;70265;47.576;19.270;2023-06-22T01:54:40;99090.59;;;19.39;100.00
71059;BME280;70265;47.576;19.270;2023-06-22T01:55:41;99094.88;;;19.40;100.00
71059;BME280;70265;47.576;19.270;2023-06-22T01:56:47;99103.69;;;19.40;100.00
71059;BME280;70265;47.576;19.270;2023-06-22T01:57:52;99091.59;;;19.31;100.00
71059;BME280;70265;47.576;19.270;2023-06-22T01:59:02;99075.22;;;19.21;100.00
71059;BME280;70265;47.576;19.270;2023-06-22T02:00:16;99093.63;;;19.22;100.00
71059;BME280;70265;47.576;19.270;2023-06-22T02:01:33;99087.47;;;19.15;100.00
71059;BME280;70265;47.576;19.270;2023-06-22T02:02:45;99079.69;;;19.07;100.00
71059;BME280;70265;47.576;19.270;2023-06-22T02:03:58;99094.84;;;19.20;100.00
71059;BME280;70265;47.576;19.270;2023-06-22T02:05:11;99105.28;;;19.15;100.00
71059;BME280;70265;47.576;19.270;2023-06-22T02:06:35;99098.09;;;19.15;100.00
71059;BME280;70265;47.576;19.270;2023-06-22T02:07:52;99103.47;;;19.22;100.00
71059;BME280;70265;47.576;19.270;2023-06-22T02:08:59;99090.94;;;19.16;100.00
71059;BME280;70265;47.576;19.270;2023-06-22T02:10:08;99107.97;;;19.28;100.00
71059;BME280;70265;47.576;19.270;2023-06-22T02:11:16;99104.28;;;19.29;100.00
71059;BME280;70265;47.576;19.270;2023-06-22T02:12:24;99097.09;;;19.23;100.00
71059;BME280;70265;47.576;19.270;2023-06-22T02:13:31;99090.75;;;19.17;100.00
71059;BME280;70265;47.576;19.270;2023-06-22T02:14:46;99107.16;;;19.34;100.00
71059;BME280;70265;47.576;19.270;2023-06-22T02:15:54;99112.72;;;19.39;100.00
71059;BME280;70265;47.576;19.270;2023-06-22T02:17:01;99115.78;;;19.43;100.00
71059;BME280;70265;47.576;19.270;2023-06-22T02:18:08;99115.00;;;19.42;100.00
71059;BME280;70265;47.576;19.270;2023-06-22T02:19:13;99115.00;;;19.42;100.00
71059;BME280;70265;47.576;19.270;2023-06-22T02:20:24;99112.09;;;19.44;100.00
71059;BME280;70265;47.576;19.270;2023-06-22T02:21:33;99105.56;;;19.46;100.00
71059;BME280;70265;47.576;19.270;2023-06-22T02:22:35;99096.97;;;19.44;100.00
71059;BME280;70265;47.576;19.270;2023-06-22T02:23:39;99107.63;;;19.57;100.00
71059;BME280;70265;47.576;19.270;2023-06-22T02:24:43;99101.88;;;19.60;100.00
71059;BME280;70265;47.576;19.270;2023-06-22T02:25:50;99101.28;;;19.65;100.00
71059;BME280;70265;47.576;19.270;2023-06-22T02:26:55;99097.19;;;19.62;100.00
71059;BME280;70265;47.576;19.270;2023-06-22T02:27:59;99101.47;;;19.63;100.00
71059;BME280;70265;47.576;19.270;2023-06-22T02:29:02;99101.47;;;19.63;100.00
71059;BME280;70265;47.576;19.270;2023-06-22T02:31:37;99098.41;;;19.60;100.00
71059;BME280;70265;47.576;19.270;2023-06-22T02:32:40;99089.81;;;19.51;100.00
71059;BME280;70265;47.576;19.270;2023-06-22T02:33:45;99099.03;;;19.42;100.00
71059;BME280;70265;47.576;19.270;2023-06-22T02:34:46;99102.84;;;19.40;100.00
71059;BME280;70265;47.576;19.270;2023-06-22T02:36:00;99104.72;;;19.39;100.00
71059;BME280;70265;47.576;19.270;2023-06-22T02:37:11;99106.31;;;19.27;100.00
71059;BME280;70265;47.576;19.270;2023-06-22T02:38:15;99111.22;;;19.23;100.00
71059;BME280;70265;47.576;19.270;2023-06-22T02:39:20;99114.91;;;19.22;100.00
71059;BME280;70265;47.576;19.270;2023-06-22T02:40:25;99109.16;;;19.19;100.00
71059;BME280;70265;47.576;19.270;2023-06-22T02:41:30;99109.56;;;19.16;100.00
71059;BME280;70265;47.576;19.270;2023-06-22T02:42:36;99122.88;;;19.16;100.00
71059;BME280;70265;47.576;19.270;2023-06-22T02:43:38;99124.69;;;19.15;100.00
71059;BME280;70265;47.576;19.270;2023-06-22T02:44:43;99107.09;;;19.01;100.00
71059;BME280;70265;47.576;19.270;2023-06-22T02:45:46;99114.25;;;19.01;100.00
71059;BME280;70265;47.576;19.270;2023-06-22T02:46:56;99120.59;;;19.06;100.00
71059;BME280;70265;47.576;19.270;2023-06-22T02:48:03;99115.88;;;19.02;100.00
71059;BME280;70265;47.576;19.270;2023-06-22T02:49:07;99108.28;;;18.99;100.00
71059;BME280;70265;47.576;19.270;2023-06-22T02:50:10;99135.72;;;19.06;100.00
71059;BME280;70265;47.576;19.270;2023-06-22T02:51:15;99131.22;;;19.06;100.00
71059;BME280;70265;47.576;19.270;2023-06-22T02:52:16;99125.94;;;19.13;100.00
71059;BME280;70265;47.576;19.270;2023-06-22T02:53:26;99134.31;;;19.16;100.00
71059;BME280;70265;47.576;19.270;2023-06-22T02:54:28;99117.34;;;19.11;100.00
71059;BME280;70265;47.576;19.270;2023-06-22T02:55:37;99131.06;;;19.21;100.00
71059;BME280;70265;47.576;19.270;2023-06-22T02:56:40;99139.25;;;19.19;100.00
71059;BME280;70265;47.576;19.270;2023-06-22T02:57:46;99134.31;;;19.16;100.00
71059;BME280;70265;47.576;19.270;2023-06-22T02:58:48;99119.72;;;18.93;100.00
71059;BME280;70265;47.576;19.270;2023-06-22T02:59:54;99132.22;;;18.99;100.00
71059;BME280;70265;47.576;19.270;2023-06-22T03:00:58;99139.03;;;19.08;100.00
71059;BME280;70265;47.576;19.270;2023-06-22T03:02:08;99113.22;;;19.02;100.00
71059;BME280;70265;47.576;19.270;2023-06-22T03:03:09;99113.25;;;19.08;100.00
71059;BME280;70265;47.576;19.270;2023-06-22T03:04:18;99120.19;;;19.09;100.00
71059;BME280;70265;47.576;19.270;2023-06-22T03:05:26;99122.63;;;18.98;100.00
71059;BME280;70265;47.576;19.270;2023-06-22T03:06:30;99123.63;;;18.90;100.00
71059;BME280;70265;47.576;19.270;2023-06-22T03:07:34;99131.63;;;18.97;100.00
71059;BME280;70265;47.576;19.270;2023-06-22T03:08:38;99127.94;;;18.91;100.00
71059;BME280;70265;47.576;19.270;2023-06-22T03:09:43;99129.53;;;18.86;100.00
71059;BME280;70265;47.576;19.270;2023-06-22T03:10:52;99130.78;;;18.90;100.00
71059;BME280;70265;47.576;19.270;2023-06-22T03:11:53;99123.41;;;18.92;100.00
71059;BME280;70265;47.576;19.270;2023-06-22T03:12:58;99102.50;;;18.75;100.00
71059;BME280;70265;47.576;19.270;2023-06-22T03:14:00;99133.66;;;18.95;100.00
71059;BME280;70265;47.576;19.270;2023-06-22T03:15:08;99124.47;;;18.97;100.00
71059;BME280;70265;47.576;19.270;2023-06-22T03:16:11;99128.38;;;19.01;100.00
71059;BME280;70265;47.576;19.270;2023-06-22T03:17:20;99128.56;;;19.06;100.00
71059;BME280;70265;47.576;19.270;2023-06-22T03:18:21;99122.69;;;19.24;100.00
71059;BME280;70265;47.576;19.270;2023-06-22T03:19:31;99124.50;;;19.17;100.00
71059;BME280;70265;47.576;19.270;2023-06-22T03:20:36;99132.09;;;19.26;100.00
71059;BME280;70265;47.576;19.270;2023-06-22T03:21:41;99123.94;;;19.28;100.00
71059;BME280;70265;47.576;19.270;2023-06-22T03:22:43;99120.66;;;19.32;100.00
71059;BME280;70265;47.576;19.270;2023-06-22T03:23:49;99112.25;;;19.29;100.00
71059;BME280;70265;47.576;19.270;2023-06-22T03:24:52;99117.38;;;19.37;100.00
71059;BME280;70265;47.576;19.270;2023-06-22T03:26:02;99120.28;;;19.36;100.00
71059;BME280;70265;47.576;19.270;2023-06-22T03:27:07;99128.84;;;19.38;100.00
71059;BME280;70265;47.576;19.270;2023-06-22T03:28:11;99129.22;;;19.15;100.00
71059;BME280;70265;47.576;19.270;2023-06-22T03:29:16;99123.28;;;19.13;100.00
71059;BME280;70265;47.576;19.270;2023-06-22T03:30:23;99116.09;;;19.07;100.00
71059;BME280;70265;47.576;19.270;2023-06-22T03:31:24;99116.50;;;19.04;100.00
71059;BME280;70265;47.576;19.270;2023-06-22T03:32:32;99122.63;;;18.98;100.00
71059;BME280;70265;47.576;19.270;2023-06-22T03:33:37;99124.25;;;18.99;100.00
71059;BME280;70265;47.576;19.270;2023-06-22T03:34:42;99125.44;;;18.90;100.00
71059;BME280;70265;47.576;19.270;2023-06-22T03:35:50;99111.13;;;18.84;100.00
71059;BME280;70265;47.576;19.270;2023-06-22T03:36:52;99123.41;;;18.92;100.00
71059;BME280;70265;47.576;19.270;2023-06-22T03:37:56;99114.00;;;18.89;100.00
71059;BME280;70265;47.576;19.270;2023-06-22T03:39:00;99100.28;;;18.86;100.00
71059;BME280;70265;47.576;19.270;2023-06-22T03:40:12;99120.97;;;18.97;100.00
71059;BME280;70265;47.576;19.270;2023-06-22T03:41:14;99124.66;;;19.02;100.00
71059;BME280;70265;47.576;19.270;2023-06-22T03:42:26;99110.19;;;19.05;100.00
71059;BME280;70265;47.576;19.270;2023-06-22T03:43:33;99120.19;;;19.09;100.00
71059;BME280;70265;47.576;19.270;2023-06-22T03:44:44;99107.53;;;19.05;100.00
71059;BME280;70265;47.576;19.270;2023-06-22T03:45:49;99110.78;;;19.07;100.00
71059;BME280;70265;47.576;19.270;2023-06-22T03:46:58;99113.25;;;19.08;100.00
71059;BME280;70265;47.576;19.270;2023-06-22T03:48:03;99117.34;;;19.11;100.00
71059;BME280;70265;47.576;19.270;2023-06-22T03:49:12;99124.09;;;19.13;100.00
71059;BME280;70265;47.576;19.270;2023-06-22T03:50:15;99130.41;;;19.12;100.00
71059;BME280;70265;47.576;19.270;2023-06-22T03:51:21;99131.88;;;19.15;100.00
71059;BME280;70265;47.576;19.270;2023-06-22T03:52:22;99111.38;;;19.09;100.00
71059;BME280;70265;47.576;19.270;2023-06-22T03:53:27;99127.59;;;19.20;100.00
71059;BME280;70265;47.576;19.270;2023-06-22T03:54:31;99115.94;;;19.21;100.00
71059;BME280;70265;47.576;19.270;2023-06-22T03:55:45;99119.44;;;19.28;100.00
71059;BME280;70265;47.576;19.270;2023-06-22T03:56:52;99122.28;;;19.33;100.00
71059;BME280;70265;47.576;19.270;2023-06-22T03:57:59;99097.34;;;19.28;100.00
71059;BME280;70265;47.576;19.270;2023-06-22T03:59:06;99112.94;;;19.44;100.00
71059;BME280;70265;47.576;19.270;2023-06-22T04:00:17;99118.66;;;19.54;100.00
71059;BME280;70265;47.576;19.270;2023-06-22T04:01:20;99101.03;;;19.40;100.00
71059;BME280;70265;47.576;19.270;2023-06-22T04:02:30;99125.63;;;19.42;100.00
71059;BME280;70265;47.576;19.270;2023-06-22T04:03:37;99115.38;;;19.39;100.00
71059;BME280;70265;47.576;19.270;2023-06-22T04:04:42;99113.06;;;19.29;100.00
71059;BME280;70265;47.576;19.270;2023-06-22T04:05:43;99117.59;;;19.36;100.00
71059;BME280;70265;47.576;19.270;2023-06-22T04:06:49;99110.81;;;19.33;100.00
71059;BME280;70265;47.576;19.270;2023-06-22T04:07:51;99122.75;;;19.44;100.00
71059;BME280;70265;47.576;19.270;2023-06-22T04:08:55;99116.81;;;19.42;100.00
71059;BME280;70265;47.576;19.270;2023-06-22T04:09:58;99121.13;;;19.49;100.00
71059;BME280;70265;47.576;19.270;2023-06-22T04:11:04;99113.72;;;19.38;100.00
71059;BME280;70265;47.576;19.270;2023-06-22T04:12:11;99121.75;;;19.51;100.00
71059;BME280;70265;47.576;19.270;2023-06-22T04:13:17;99127.66;;;19.53;100.00
71059;BME280;70265;47.576;19.270;2023-06-22T04:14:25;99127.66;;;19.53;100.00
71059;BME280;70265;47.576;19.270;2023-06-22T04:15:28;99132.19;;;19.59;100.00
71059;BME280;70265;47.576;19.270;2023-06-22T04:16:38;99135.06;;;19.64;100.00
71059;BME280;70265;47.576;19.270;2023-06-22T04:17:45;99121.34;;;19.67;100.00
71059;BME280;70265;47.576;19.270;2023-06-22T04:18:50;99135.69;;;19.73;100.00
71059;BME280;70265;47.576;19.270;2023-06-22T04:20:01;99133.03;;;19.79;100.00
71059;BME280;70265;47.576;19.270;2023-06-22T04:21:06;99131.78;;;19.89;100.00
71059;BME280;70265;47.576;19.270;2023-06-22T04:22:15;99136.91;;;19.90;100.00
71059;BME280;70265;47.576;19.270;2023-06-22T04:23:16;99130.56;;;19.85;100.00
71059;BME280;70265;47.576;19.270;2023-06-22T04:24:22;99127.72;;;19.79;100.00
71059;BME280;70265;47.576;19.270;2023-06-22T04:25:23;99124.41;;;19.77;100.00
71059;BME280;70265;47.576;19.270;2023-06-22T04:26:28;99127.91;;;19.65;100.00
71059;BME280;70265;47.576;19.270;2023-06-22T04:27:30;99142.03;;;19.59;100.00
71059;BME280;70265;47.576;19.270;2023-06-22T04:28:39;99146.09;;;19.55;100.00
71059;BME280;70265;47.576;19.270;2023-06-22T04:29:42;99143.63;;;19.53;100.00
71059;BME280;70265;47.576;19.270;2023-06-22T04:30:50;99139.13;;;19.54;100.00
71059;BME280;70265;47.576;19.270;2023-06-22T04:31:55;99131.78;;;19.56;100.00
71059;BME280;70265;47.576;19.270;2023-06-22T04:33:04;99147.75;;;19.62;100.00
71059;BME280;70265;47.576;19.270;2023-06-22T04:34:13;99132.38;;;19.51;100.00
71059;BME280;70265;47.576;19.270;2023-06-22T04:35:20;99146.09;;;19.55;100.00
71059;BME280;70265;47.576;19.270;2023-06-22T04:36:23;99129.31;;;19.48;100.00
71059;BME280;70265;47.576;19.270;2023-06-22T04:37:35;99151.25;;;19.63;100.00
71059;BME280;70265;47.576;19.270;2023-06-22T04:38:36;99138.72;;;19.63;100.00
71059;BME280;70265;47.576;19.270;2023-06-22T04:39:42;99143.25;;;19.69;100.00
71059;BME280;70265;47.576;19.270;2023-06-22T04:40:44;99147.13;;;19.73;100.00
71059;BME280;70265;47.576;19.270;2023-06-22T04:41:50;99145.50;;;19.86;100.00
71059;BME280;70265;47.576;19.270;2023-06-22T04:42:55;99139.97;;;19.94;100.00
71059;BME280;70265;47.576;19.270;2023-06-22T04:44:11;99144.91;;;20.03;100.00
71059;BME280;70265;47.576;19.270;2023-06-22T04:45:27;99148.16;;;20.18;100.00
71059;BME280;70265;47.576;19.270;2023-06-22T04:46:28;99140.38;;;20.17;100.00
71059;BME280;70265;47.576;19.270;2023-06-22T04:47:45;99136.66;;;20.24;100.00
71059;BME280;70265;47.576;19.270;2023-06-22T04:48:46;99147.72;;;20.35;100.00
71059;BME280;70265;47.576;19.270;2023-06-22T04:49:55;99144.03;;;20.42;100.00
71059;BME280;70265;47.576;19.270;2023-06-22T04:51:00;99142.78;;;20.45;100.00
71059;BME280;70265;47.576;19.270;2023-06-22T04:52:07;99135.19;;;20.48;100.00
71059;BME280;70265;47.576;19.270;2023-06-22T04:53:14;99138.06;;;20.60;100.00
71059;BME280;70265;47.576;19.270;2023-06-22T04:54:17;99141.94;;;20.64;100.00
71059;BME280;70265;47.576;19.270;2023-06-22T04:55:21;99138.03;;;20.66;100.00
71059;BME280;70265;47.576;19.270;2023-06-22T04:56:23;99146.66;;;20.68;100.00
71059;BME280;70265;47.576;19.270;2023-06-22T04:57:29;99148.88;;;20.71;100.00
71059;BME280;70265;47.576;19.270;2023-06-22T04:58:35;99152.75;;;20.75;100.00
71059;BME280;70265;47.576;19.270;2023-06-22T04:59:40;99149.06;;;20.76;100.00
71059;BME280;70265;47.576;19.270;2023-06-22T05:00:44;99147.78;;;20.86;100.00
71059;BME280;70265;47.576;19.270;2023-06-22T05:01:49;99145.13;;;20.92;100.00
71059;BME280;70265;47.576;19.270;2023-06-22T05:02:52;99147.53;;;21.00;100.00
71059;BME280;70265;47.576;19.270;2023-06-22T05:04:00;99147.50;;;21.07;100.00
71059;BME280;70265;47.576;19.270;2023-06-22T05:05:09;99146.28;;;21.16;100.00
71059;BME280;70265;47.576;19.270;2023-06-22T05:06:20;99142.47;;;21.30;100.00
71059;BME280;70265;47.576;19.270;2023-06-22T05:07:23;99145.53;;;21.33;100.00
71059;BME280;70265;47.576;19.270;2023-06-22T05:08:31;99148.50;;;21.50;100.00
71059;BME280;70265;47.576;19.270;2023-06-22T05:09:39;99147.22;;;21.59;100.00
71059;BME280;70265;47.576;19.270;2023-06-22T05:11:01;99152.13;;;21.62;100.00
71059;BME280;70265;47.576;19.270;2023-06-22T05:12:06;99148.38;;;21.70;100.00
71059;BME280;70265;47.576;19.270;2023-06-22T05:13:15;99145.03;;;21.74;100.00
71059;BME280;70265;47.576;19.270;2023-06-22T05:14:23;99143.75;;;21.90;100.00
71059;BME280;70265;47.576;19.270;2023-06-22T05:15:24;99150.66;;;21.98;100.00
71059;BME280;70265;47.576;19.270;2023-06-22T05:16:34;99153.47;;;22.03;100.00
71059;BME280;70265;47.576;19.270;2023-06-22T05:17:37;99139.22;;;21.91;100.00
71059;BME280;70265;47.576;19.270;2023-06-22T05:18:46;99156.59;;;22.00;100.00
71059;BME280;70265;47.576;19.270;2023-06-22T05:19:47;99156.00;;;21.98;100.00
71059;BME280;70265;47.576;19.270;2023-06-22T05:20:54;99163.84;;;21.93;97.47
71059;BME280;70265;47.576;19.270;2023-06-22T05:21:58;99145.59;;;21.90;97.38
71059;BME280;70265;47.576;19.270;2023-06-22T05:30:30;99164.97;;;22.28;94.15
71059;BME280;70265;47.576;19.270;2023-06-22T05:31:34;99167.78;;;22.33;92.47
71059;BME280;70265;47.576;19.270;2023-06-22T05:32:38;99166.84;;;22.46;88.96
71059;BME280;70265;47.576;19.270;2023-06-22T05:33:47;99168.41;;;22.53;88.95
71059;BME280;70265;47.576;19.270;2023-06-22T05:34:48;99170.19;;;22.59;88.37
71059;BME280;70265;47.576;19.270;2023-06-22T05:35:56;99163.81;;;22.60;88.07
71059;BME280;70265;47.576;19.270;2023-06-22T05:37:04;99171.13;;;22.71;87.73
71059;BME280;70265;47.576;19.270;2023-06-22T05:38:09;99168.28;;;22.66;88.46
71059;BME280;70265;47.576;19.270;2023-06-22T05:39:16;99175.88;;;22.69;88.54
71059;BME280;70265;47.576;19.270;2023-06-22T05:40:18;99169.31;;;22.65;87.14
71059;BME280;70265;47.576;19.270;2023-06-22T05:41:25;99161.97;;;22.61;87.28
71059;BME280;70265;47.576;19.270;2023-06-22T05:42:27;99170.97;;;22.66;87.21
71059;BME280;70265;47.576;19.270;2023-06-22T05:43:31;99170.75;;;22.68;87.61
71059;BME280;70265;47.576;19.270;2023-06-22T05:44:34;99177.06;;;22.73;88.08
71059;BME280;70265;47.576;19.270;2023-06-22T05:45:42;99179.53;;;22.75;88.81
71059;BME280;70265;47.576;19.270;2023-06-22T05:46:46;99159.41;;;22.66;88.08
71059;BME280;70265;47.576;19.270;2023-06-22T05:47:50;99181.16;;;22.76;88.37
71059;BME280;70265;47.576;19.270;2023-06-22T05:48:52;99183.63;;;22.77;89.67
71059;BME280;70265;47.576;19.270;2023-06-22T05:49:57;99177.22;;;22.78;88.37
71059;BME280;70265;47.576;19.270;2023-06-22T05:51:03;99180.50;;;22.80;89.15
71059;BME280;70265;47.576;19.270;2023-06-22T05:52:11;99186.22;;;22.84;89.32